Time;durP1;ratioP1;P1;durP2;ratioP2;P2;SDS_P1;SDS_P2;PMS_P1;PMS_P2;Temp;Humidity;BMP_temperature;BMP_pressure;BME280_temperature;BME280_humidity;BME280_pressure;Samples;Min_cycle;Max_cycle;Signal;HPM_P1;HPM_P2
2021/08/05 00:00:36;;;;;;;4.07;2.33;;;21.90;99.90;;;;;;4970440;28;20329;-67
2021/08/05 00:03:40;;;;;;;3.78;2.63;;;21.70;99.90;;;;;;4970542;28;20042;-68
2021/08/05 00:06:44;;;;;;;6.97;2.58;;;21.40;99.90;;;;;;4974464;28;20035;-68
2021/08/05 00:09:48;;;;;;;4.57;2.60;;;21.20;99.90;;;;;;4957129;28;20066;-68
2021/08/05 00:12:52;;;;;;;9.85;3.17;;;21.10;99.90;;;;;;4959637;28;20505;-69
2021/08/05 00:15:56;;;;;;;5.63;2.65;;;21.00;99.90;;;;;;4954110;29;20056;-69
2021/08/05 00:19:00;;;;;;;5.80;2.95;;;21.00;99.90;;;;;;4954590;28;20054;-68
2021/08/05 00:22:29;;;;;;;8.98;3.00;;;20.80;99.90;;;;;;4966170;28;20050;-68
2021/08/05 00:25:40;;;;;;;6.28;3.42;;;20.80;99.90;;;;;;4967317;28;20050;-69
2021/08/05 00:28:44;;;;;;;9.00;3.50;;;20.60;99.90;;;;;;4971888;28;20058;-69
2021/08/05 00:31:48;;;;;;;12.65;4.00;;;20.60;99.90;;;;;;4960392;28;20510;-68
2021/08/05 00:34:53;;;;;;;11.60;3.63;;;20.60;99.90;;;;;;4955554;28;20423;-67
2021/08/05 00:37:57;;;;;;;14.25;3.92;;;20.50;99.90;;;;;;4944743;28;20049;-67
2021/08/05 00:41:02;;;;;;;7.95;4.13;;;20.30;99.90;;;;;;4973057;28;20050;-67
2021/08/05 00:44:08;;;;;;;8.90;3.90;;;20.20;99.90;;;;;;4943750;28;20062;-66
2021/08/05 00:47:12;;;;;;;5.70;3.85;;;20.20;99.90;;;;;;4954046;29;20414;-66
2021/08/05 00:50:17;;;;;;;7.45;3.40;;;20.20;99.90;;;;;;4963948;28;20035;-68
2021/08/05 00:53:22;;;;;;;5.18;3.30;;;20.20;99.90;;;;;;4966134;28;20403;-67
2021/08/05 00:56:26;;;;;;;6.03;3.17;;;20.20;99.90;;;;;;4954255;28;20054;-67
2021/08/05 00:59:31;;;;;;;9.52;3.28;;;20.00;99.90;;;;;;4952920;29;20054;-68
2021/08/05 01:02:40;;;;;;;6.47;3.47;;;20.00;99.90;;;;;;4965935;28;20038;-67
2021/08/05 01:05:53;;;;;;;8.10;3.78;;;20.00;99.90;;;;;;4969638;28;20425;-68
2021/08/05 01:09:22;;;;;;;7.95;3.47;;;20.10;99.90;;;;;;4968124;28;20046;-67
2021/08/05 01:12:39;;;;;;;5.27;2.97;;;20.00;99.90;;;;;;4968852;28;20038;-68
2021/08/05 01:15:47;;;;;;;7.30;2.92;;;19.90;99.90;;;;;;4960057;28;20039;-67
2021/08/05 01:18:56;;;;;;;8.55;2.85;;;19.90;99.90;;;;;;4953227;28;20039;-67
2021/08/05 01:22:16;;;;;;;5.80;2.63;;;20.00;99.90;;;;;;4934543;29;20035;-67
2021/08/05 01:25:33;;;;;;;8.43;3.28;;;20.10;99.90;;;;;;4961777;28;20042;-67
2021/08/05 01:28:41;;;;;;;4.57;2.47;;;19.90;99.90;;;;;;4968694;28;20042;-68
2021/08/05 01:31:48;;;;;;;4.50;2.47;;;20.00;99.90;;;;;;4953730;29;20064;-68
2021/08/05 01:34:52;;;;;;;7.85;3.00;;;20.00;99.90;;;;;;4976036;28;20049;-68
2021/08/05 01:37:59;;;;;;;5.28;2.58;;;20.10;99.90;;;;;;4971178;28;20050;-68
2021/08/05 01:41:05;;;;;;;6.70;3.00;;;20.20;99.90;;;;;;4972931;28;20043;-68
2021/08/05 01:44:12;;;;;;;8.57;2.90;;;20.40;99.90;;;;;;4952882;28;20497;-68
2021/08/05 01:47:18;;;;;;;8.65;3.20;;;20.30;99.90;;;;;;4963969;28;20039;-69
2021/08/05 01:50:22;;;;;;;5.90;2.80;;;20.40;99.90;;;;;;4981363;28;20039;-68
2021/08/05 01:53:27;;;;;;;5.68;2.90;;;20.40;99.90;;;;;;4944367;29;20522;-68
2021/08/05 01:56:33;;;;;;;8.40;3.10;;;20.40;99.90;;;;;;4962739;28;20045;-68
2021/08/05 01:59:38;;;;;;;3.42;2.45;;;20.30;99.90;;;;;;4967374;28;20050;-68
2021/08/05 02:02:43;;;;;;;4.72;2.55;;;20.40;99.90;;;;;;4963395;28;20067;-67
2021/08/05 02:06:04;;;;;;;5.07;2.50;;;20.40;99.90;;;;;;4968447;28;20034;-68
2021/08/05 02:09:26;;;;;;;8.63;3.00;;;20.30;99.90;;;;;;4967782;28;20027;-68
2021/08/05 02:12:43;;;;;;;5.05;2.08;;;20.30;99.90;;;;;;4951891;29;20501;-67
2021/08/05 02:15:52;;;;;;;7.20;2.55;;;20.30;99.90;;;;;;4951684;29;20054;-67
2021/08/05 02:18:58;;;;;;;5.70;2.20;;;20.40;99.90;;;;;;4957665;28;20051;-67
2021/08/05 02:22:04;;;;;;;17.83;2.90;;;20.40;99.90;;;;;;4936969;28;20066;-67
2021/08/05 02:25:10;;;;;;;6.43;2.38;;;20.40;99.90;;;;;;4962417;28;20058;-68
2021/08/05 02:28:15;;;;;;;7.47;2.17;;;20.50;99.90;;;;;;4967505;28;20050;-68
2021/08/05 02:31:20;;;;;;;11.30;2.45;;;20.60;99.90;;;;;;4969158;28;20046;-68
2021/08/05 02:34:25;;;;;;;5.57;2.15;;;20.60;99.90;;;;;;4952359;29;20062;-67
2021/08/05 02:37:30;;;;;;;6.10;1.90;;;20.50;99.90;;;;;;4950972;28;20047;-68
2021/08/05 02:40:35;;;;;;;5.07;1.80;;;20.60;99.90;;;;;;4962735;28;20074;-67
2021/08/05 02:43:40;;;;;;;5.38;1.52;;;20.70;99.90;;;;;;4981740;28;20069;-67
2021/08/05 02:46:46;;;;;;;7.15;1.73;;;20.80;99.90;;;;;;4966805;28;20051;-67
2021/08/05 02:49:59;;;;;;;8.70;2.53;;;20.80;99.90;;;;;;4959549;28;20052;-67
2021/08/05 02:53:04;;;;;;;;;;;20.70;99.90;;;;;;4952676;28;20054;-67
2021/08/05 02:56:09;;;;;;;5.00;1.95;;;20.80;99.90;;;;;;4951312;28;19922;-67
2021/08/05 02:59:14;;;;;;;10.02;2.53;;;20.70;99.90;;;;;;4971057;28;20054;-67
2021/08/05 03:02:19;;;;;;;4.63;1.95;;;20.70;99.90;;;;;;4970155;28;20057;-67
2021/08/05 03:05:25;;;;;;;6.97;1.83;;;20.70;99.90;;;;;;4932852;29;20051;-67
2021/08/05 03:08:36;;;;;;;3.33;1.83;;;20.80;99.90;;;;;;4965042;28;20039;-66
2021/08/05 03:11:40;;;;;;;4.70;1.88;;;20.80;99.90;;;;;;4970109;28;20046;-67
2021/08/05 03:14:43;;;;;;;6.22;2.10;;;20.90;99.90;;;;;;4971242;28;20049;-67
2021/08/05 03:17:48;;;;;;;5.28;1.60;;;20.90;99.90;;;;;;4947297;28;20046;-66
2021/08/05 03:20:52;;;;;;;3.50;1.80;;;20.80;99.90;;;;;;4956043;28;20398;-66
2021/08/05 03:23:56;;;;;;;6.03;2.17;;;20.80;99.90;;;;;;4951598;29;20060;-66
2021/08/05 03:27:00;;;;;;;9.38;1.90;;;20.70;99.90;;;;;;4951471;28;20503;-66
2021/08/05 03:30:05;;;;;;;5.15;1.83;;;20.70;99.90;;;;;;4955326;28;20367;-66
2021/08/05 03:33:10;;;;;;;7.13;2.92;;;20.60;99.90;;;;;;4951679;29;20040;-66
2021/08/05 03:36:14;;;;;;;4.95;2.13;;;20.50;99.90;;;;;;4951460;28;20042;-66
2021/08/05 03:39:18;;;;;;;5.60;2.20;;;20.30;99.90;;;;;;4966875;28;20047;-66
2021/08/05 03:42:22;;;;;;;6.47;2.13;;;20.20;99.90;;;;;;4967296;28;20036;-66
2021/08/05 03:45:26;;;;;;;8.02;2.05;;;20.10;99.90;;;;;;4974546;28;20050;-67
2021/08/05 03:48:30;;;;;;;8.65;2.15;;;20.20;99.90;;;;;;4972972;28;20045;-67
2021/08/05 03:51:35;;;;;;;7.82;2.30;;;20.30;99.90;;;;;;4970782;28;20042;-66
2021/08/05 03:54:39;;;;;;;10.18;1.98;;;20.40;99.90;;;;;;4955341;29;20536;-66
2021/08/05 03:57:46;;;;;;;6.32;1.92;;;20.30;99.90;;;;;;4966174;28;20054;-66
2021/08/05 04:00:50;;;;;;;8.55;2.30;;;20.30;99.90;;;;;;4973006;28;20051;-67
2021/08/05 04:03:55;;;;;;;5.93;2.30;;;20.40;99.90;;;;;;4955100;29;20050;-66
2021/08/05 04:06:59;;;;;;;7.78;2.33;;;20.40;99.90;;;;;;4964128;28;20050;-66
2021/08/05 04:10:04;;;;;;;7.15;2.65;;;20.30;99.90;;;;;;4961420;28;20519;-66
2021/08/05 04:13:09;;;;;;;10.15;2.38;;;20.30;99.90;;;;;;4961532;28;20499;-66
2021/08/05 04:16:14;;;;;;;9.93;2.50;;;20.30;99.90;;;;;;4970416;28;20042;-66
2021/08/05 04:19:18;;;;;;;7.80;2.47;;;20.20;99.90;;;;;;4969897;28;20043;-66
2021/08/05 04:22:22;;;;;;;7.75;2.05;;;20.10;99.90;;;;;;4973483;28;20042;-66
2021/08/05 04:25:26;;;;;;;6.60;2.00;;;20.10;99.90;;;;;;4971179;28;20041;-67
2021/08/05 04:28:30;;;;;;;13.27;3.60;;;20.20;99.90;;;;;;4971400;28;20044;-66
2021/08/05 04:31:34;;;;;;;9.18;2.40;;;20.10;99.90;;;;;;4971313;28;20046;-66
2021/08/05 04:34:38;;;;;;;8.98;2.70;;;20.10;99.90;;;;;;4973245;28;20046;-67
2021/08/05 04:37:55;;;;;;;11.45;2.80;;;20.00;99.90;;;;;;4971233;28;20516;-67
2021/08/05 04:40:59;;;;;;;10.07;2.25;;;19.90;99.90;;;;;;4968692;28;20605;-66
2021/08/05 04:44:05;;;;;;;8.55;2.40;;;19.90;99.90;;;;;;4971099;28;20041;-66
2021/08/05 04:47:10;;;;;;;9.50;2.58;;;19.90;99.90;;;;;;4971588;28;20039;-66
2021/08/05 04:50:16;;;;;;;8.18;2.50;;;19.80;99.90;;;;;;4968611;28;20023;-66
2021/08/05 04:53:21;;;;;;;8.60;2.63;;;19.80;99.90;;;;;;4979466;28;20049;-67
2021/08/05 04:56:28;;;;;;;4.97;2.40;;;19.90;99.90;;;;;;4970385;28;20492;-67
2021/08/05 04:59:31;;;;;;;9.48;2.80;;;20.00;99.90;;;;;;4965642;28;20035;-67
2021/08/05 05:02:35;;;;;;;10.95;3.05;;;20.10;99.90;;;;;;4966453;28;20504;-67
2021/08/05 05:05:41;;;;;;;7.95;2.40;;;20.10;99.90;;;;;;4971712;28;20042;-67
2021/08/05 05:08:46;;;;;;;12.18;2.83;;;20.10;99.90;;;;;;4967675;28;20031;-67
2021/08/05 05:11:50;;;;;;;7.82;3.03;;;20.10;99.90;;;;;;4965741;28;20041;-67
2021/08/05 05:14:56;;;;;;;7.95;2.60;;;20.20;99.90;;;;;;4932933;28;21133;-66
2021/08/05 05:18:00;;;;;;;12.27;3.22;;;20.20;99.90;;;;;;4946860;28;20498;-66
2021/08/05 05:21:04;;;;;;;11.27;3.00;;;20.20;99.90;;;;;;4959060;28;20402;-66
2021/08/05 05:24:08;;;;;;;7.40;2.75;;;20.30;99.90;;;;;;4954103;29;20054;-66
2021/08/05 05:27:12;;;;;;;8.25;2.50;;;20.40;99.90;;;;;;4953986;28;20418;-66
2021/08/05 05:30:18;;;;;;;11.52;2.53;;;20.60;99.90;;;;;;4957945;28;20394;-66
2021/08/05 05:33:23;;;;;;;11.68;2.95;;;20.60;99.90;;;;;;4973302;28;20045;-66
2021/08/05 05:36:27;;;;;;;11.80;3.10;;;20.60;99.90;;;;;;4966766;28;20053;-66
2021/08/05 05:39:31;;;;;;;10.07;3.10;;;20.50;99.90;;;;;;4965707;28;20050;-65
2021/08/05 05:42:35;;;;;;;10.73;3.10;;;20.40;99.90;;;;;;4963903;28;20432;-66
2021/08/05 05:45:42;;;;;;;13.82;3.63;;;20.50;99.90;;;;;;4964293;28;20318;-65
2021/08/05 05:48:46;;;;;;;10.57;2.90;;;20.50;99.90;;;;;;4956602;28;20045;-67
2021/08/05 05:51:50;;;;;;;12.52;2.88;;;20.70;99.90;;;;;;4957623;28;20069;-66
2021/08/05 05:54:54;;;;;;;13.27;3.42;;;20.80;99.90;;;;;;4968462;28;20061;-66
2021/08/05 05:57:59;;;;;;;17.23;3.47;;;20.70;99.90;;;;;;4963936;28;20085;-67
2021/08/05 06:01:03;;;;;;;15.45;3.33;;;20.80;99.90;;;;;;4962637;28;20441;-66
2021/08/05 06:04:08;;;;;;;16.65;3.20;;;20.80;99.90;;;;;;4933248;29;20051;-67
2021/08/05 06:07:12;;;;;;;11.18;3.20;;;20.90;99.90;;;;;;4954255;28;20045;-67
2021/08/05 06:10:21;;;;;;;12.27;3.15;;;21.10;99.90;;;;;;4961345;28;20038;-67
2021/08/05 06:13:25;;;;;;;19.27;2.58;;;21.10;99.90;;;;;;4981369;28;20042;-66
2021/08/05 06:16:29;;;;;;;6.07;2.50;;;21.30;99.90;;;;;;4953787;28;20035;-66
2021/08/05 06:19:33;;;;;;;11.05;2.85;;;21.40;99.90;;;;;;4940218;28;20326;-66
2021/08/05 06:22:39;;;;;;;13.45;2.50;;;21.50;99.90;;;;;;4954047;28;20050;-65
2021/08/05 06:25:43;;;;;;;11.57;2.65;;;21.60;99.90;;;;;;4956397;28;20058;-66
2021/08/05 06:28:47;;;;;;;8.40;2.65;;;21.40;99.90;;;;;;4956708;28;20041;-67
2021/08/05 06:31:52;;;;;;;16.38;2.70;;;21.40;99.90;;;;;;4956777;28;20039;-68
2021/08/05 06:34:56;;;;;;;7.47;2.08;;;21.50;99.90;;;;;;4950305;28;20409;-67
2021/08/05 06:38:02;;;;;;;11.68;3.13;;;21.50;99.90;;;;;;4949504;28;20073;-68
2021/08/05 06:41:07;;;;;;;13.95;3.63;;;21.70;99.90;;;;;;4958445;28;20043;-65
2021/08/05 06:44:16;;;;;;;11.27;2.70;;;21.50;99.90;;;;;;4965031;28;20050;-68
2021/08/05 06:47:20;;;;;;;7.80;2.35;;;21.60;99.90;;;;;;4960536;28;20034;-67
2021/08/05 06:50:38;;;;;;;13.45;3.58;;;21.40;99.90;;;;;;4956391;28;20039;-67
2021/08/05 06:53:54;;;;;;;10.75;2.45;;;21.70;99.90;;;;;;4960848;28;20501;-67
2021/08/05 06:57:00;;;;;;;13.52;3.45;;;21.60;99.90;;;;;;4961508;28;20605;-66
2021/08/05 07:00:05;;;;;;;13.77;3.22;;;21.50;99.90;;;;;;4955211;28;20046;-66
2021/08/05 07:03:10;;;;;;;13.90;3.05;;;21.30;99.90;;;;;;4953601;28;20070;-66
2021/08/05 07:06:14;;;;;;;11.93;3.20;;;21.40;99.90;;;;;;4953788;28;20042;-67
2021/08/05 07:09:19;;;;;;;9.70;3.28;;;21.20;99.90;;;;;;4946383;28;20062;-67
2021/08/05 07:12:23;;;;;;;12.77;2.55;;;21.20;99.90;;;;;;4950928;28;20501;-67
2021/08/05 07:15:27;;;;;;;11.98;3.00;;;21.60;99.90;;;;;;4949669;28;20521;-67
2021/08/05 07:18:31;;;;;;;7.90;2.75;;;21.90;99.90;;;;;;4951159;28;20046;-67
2021/08/05 07:21:35;;;;;;;11.02;3.15;;;22.20;99.90;;;;;;4956531;28;20031;-67
2021/08/05 07:24:41;;;;;;;11.05;3.17;;;22.50;99.90;;;;;;4965564;28;20047;-67
2021/08/05 07:27:47;;;;;;;8.70;2.65;;;23.00;99.90;;;;;;4966641;28;20047;-66
2021/08/05 07:30:52;;;;;;;14.15;3.15;;;22.60;99.90;;;;;;4952390;28;20046;-66
2021/08/05 07:33:56;;;;;;;10.82;2.95;;;22.40;99.90;;;;;;4965344;28;20042;-68
2021/08/05 07:37:02;;;;;;;10.98;3.20;;;22.40;99.90;;;;;;4956787;28;20054;-65
2021/08/05 07:40:06;;;;;;;9.88;2.55;;;22.30;99.90;;;;;;4957658;28;20038;-67
2021/08/05 07:43:10;;;;;;;12.38;2.75;;;22.50;99.90;;;;;;4961773;28;20038;-67
2021/08/05 07:46:20;;;;;;;9.25;2.80;;;23.00;99.90;;;;;;4964656;28;20053;-67
2021/08/05 07:49:30;;;;;;;14.88;3.03;;;23.30;99.90;;;;;;4960744;28;20043;-68
2021/08/05 07:52:34;;;;;;;15.15;2.72;;;23.50;99.90;;;;;;4962583;28;20065;-68
2021/08/05 07:55:39;;;;;;;12.52;3.88;;;23.70;99.90;;;;;;4963166;28;20508;-68
2021/08/05 07:58:43;;;;;;;12.77;3.22;;;24.30;99.90;;;;;;4956883;28;20038;-68
2021/08/05 08:01:47;;;;;;;7.70;2.63;;;24.70;99.90;;;;;;4959545;28;20041;-67
2021/08/05 08:04:51;;;;;;;11.10;2.90;;;24.80;99.90;;;;;;4952715;28;20525;-67
2021/08/05 08:07:55;;;;;;;11.50;2.88;;;24.50;99.90;;;;;;4954063;28;20038;-68
2021/08/05 08:10:59;;;;;;;18.20;3.90;;;24.30;99.90;;;;;;4945612;28;20043;-68
2021/08/05 08:14:04;;;;;;;12.75;3.28;;;24.20;99.90;;;;;;4952084;28;20481;-67
2021/08/05 08:17:09;;;;;;;13.77;3.78;;;24.00;99.90;;;;;;4955776;28;20513;-67
2021/08/05 08:20:13;;;;;;;9.70;2.85;;;23.80;99.90;;;;;;4954217;28;20046;-67
2021/08/05 08:23:20;;;;;;;15.85;3.72;;;23.70;99.90;;;;;;4948791;28;20542;-67
2021/08/05 08:26:24;;;;;;;12.05;4.03;;;23.60;99.90;;;;;;4955791;28;20592;-67
2021/08/05 08:29:29;;;;;;;17.27;4.28;;;23.70;99.90;;;;;;4961938;28;20042;-67
2021/08/05 08:32:33;;;;;;;17.52;3.17;;;23.80;99.90;;;;;;4958229;28;20054;-67
2021/08/05 08:35:37;;;;;;;9.65;3.08;;;24.00;99.90;;;;;;4951220;28;20442;-67
2021/08/05 08:38:43;;;;;;;15.50;3.20;;;24.00;99.90;;;;;;4953829;28;20035;-67
2021/08/05 08:41:47;;;;;;;10.48;2.65;;;24.30;99.90;;;;;;4955578;28;20108;-68
2021/08/05 08:44:51;;;;;;;15.90;3.20;;;24.60;99.90;;;;;;4943792;28;20046;-67
2021/08/05 08:47:55;;;;;;;14.60;2.85;;;24.40;99.90;;;;;;4960443;28;20111;-67
2021/08/05 08:51:01;;;;;;;12.00;2.83;;;24.20;99.90;;;;;;4963406;28;20046;-67
2021/08/05 08:54:08;;;;;;;10.30;3.17;;;23.90;99.90;;;;;;4949175;28;20042;-67
2021/08/05 08:57:16;;;;;;;16.45;3.42;;;23.60;99.90;;;;;;4968395;28;20054;-67
2021/08/05 09:00:22;;;;;;;13.30;3.53;;;23.60;99.90;;;;;;4954080;28;20042;-67
2021/08/05 09:03:28;;;;;;;10.77;2.88;;;23.80;99.90;;;;;;4953172;28;20050;-66
2021/08/05 09:06:33;;;;;;;21.33;4.35;;;23.40;99.90;;;;;;4954983;28;20046;-67
2021/08/05 09:09:39;;;;;;;9.23;2.90;;;23.30;99.90;;;;;;4959462;28;20046;-66
2021/08/05 09:12:44;;;;;;;16.90;3.00;;;23.00;99.90;;;;;;4942214;28;20059;-66
2021/08/05 09:15:48;;;;;;;11.52;2.80;;;23.40;99.90;;;;;;4963648;28;20061;-67
2021/08/05 09:18:53;;;;;;;23.77;3.22;;;23.20;99.90;;;;;;4948863;28;20058;-66
2021/08/05 09:22:01;;;;;;;12.15;2.38;;;23.00;99.90;;;;;;4953668;29;20058;-67
2021/08/05 09:25:22;;;;;;;15.35;2.95;;;23.50;99.90;;;;;;4953619;28;20042;-67
2021/08/05 09:28:26;;;;;;;10.77;2.57;;;23.20;99.90;;;;;;4955329;28;20046;-67
2021/08/05 09:31:34;;;;;;;11.30;2.83;;;23.60;99.90;;;;;;4958733;28;20413;-66
2021/08/05 09:34:40;;;;;;;16.23;3.70;;;23.70;99.90;;;;;;4953269;28;20394;-67
2021/08/05 09:37:44;;;;;;;13.80;3.20;;;24.00;99.90;;;;;;4964377;28;20037;-67
2021/08/05 09:41:08;;;;;;;11.82;3.00;;;24.80;99.90;;;;;;4971286;28;20504;-67
2021/08/05 09:44:12;;;;;;;9.02;2.35;;;25.60;99.90;;;;;;4964398;28;20054;-67
2021/08/05 09:47:22;;;;;;;12.50;2.50;;;27.50;99.90;;;;;;4965246;28;20049;-68
2021/08/05 09:50:26;;;;;;;8.32;2.38;;;29.30;99.10;;;;;;4955048;28;20057;-66
2021/08/05 09:53:30;;;;;;;12.25;2.40;;;26.70;99.40;;;;;;4972338;28;20047;-64
2021/08/05 09:56:37;;;;;;;13.70;2.80;;;25.10;99.90;;;;;;4965657;28;20041;-67
2021/08/05 10:00:02;;;;;;;9.98;2.53;;;24.50;99.90;;;;;;4968970;28;20042;-67
2021/08/05 10:03:29;;;;;;;12.60;2.50;;;24.50;99.90;;;;;;4946868;28;20039;-66
2021/08/05 10:06:59;;;;;;;15.50;3.00;;;24.10;99.90;;;;;;4971666;28;20050;-65
2021/08/05 10:10:05;;;;;;;10.52;2.85;;;24.50;99.90;;;;;;4954934;28;20589;-67
2021/08/05 10:13:09;;;;;;;10.38;2.15;;;25.10;99.90;;;;;;4963676;28;20046;-67
2021/08/05 10:16:13;;;;;;;6.25;1.83;;;26.00;99.90;;;;;;4954284;28;20050;-67
2021/08/05 10:19:19;;;;;;;10.18;2.40;;;26.40;99.90;;;;;;4966848;28;20042;-67
2021/08/05 10:22:24;;;;;;;7.57;1.92;;;27.40;99.40;;;;;;4963113;28;20046;-67
2021/08/05 10:25:28;;;;;;;10.27;1.85;;;28.10;98.10;;;;;;4954723;28;20397;-66
2021/08/05 10:28:34;;;;;;;8.00;1.92;;;27.50;96.10;;;;;;4953764;28;20046;-65
2021/08/05 10:31:40;;;;;;;9.73;2.30;;;26.90;97.30;;;;;;4958530;28;20387;-67
2021/08/05 10:34:45;;;;;;;5.68;1.73;;;27.30;97.20;;;;;;4952996;29;20058;-64
2021/08/05 10:37:49;;;;;;;10.32;2.33;;;26.90;95.40;;;;;;4944538;29;20051;-64
2021/08/05 10:40:54;;;;;;;11.88;2.42;;;26.90;95.60;;;;;;4963392;28;20058;-66
2021/08/05 10:44:00;;;;;;;7.28;2.25;;;26.40;96.60;;;;;;4940511;28;20046;-65
2021/08/05 10:47:06;;;;;;;9.23;3.05;;;26.90;96.80;;;;;;4964606;28;20046;-67
2021/08/05 10:50:14;;;;;;;8.23;2.30;;;27.90;95.70;;;;;;4956984;28;20046;-66
2021/08/05 10:53:42;;;;;;;7.20;1.83;;;27.10;94.80;;;;;;4956514;28;20417;-65
2021/08/05 10:56:47;;;;;;;6.03;1.77;;;28.70;93.70;;;;;;4952980;29;20046;-67
2021/08/05 11:00:16;;;;;;;9.93;2.10;;;31.30;91.40;;;;;;4952403;28;20052;-67
2021/08/05 11:03:45;;;;;;;5.60;1.85;;;31.00;91.00;;;;;;4963646;28;20493;-66
2021/08/05 11:06:49;;;;;;;6.57;1.73;;;29.90;91.70;;;;;;4951972;28;20064;-67
2021/08/05 11:10:14;;;;;;;6.97;1.77;;;28.40;92.80;;;;;;4953463;28;20405;-67
2021/08/05 11:13:21;;;;;;;8.27;2.00;;;28.20;93.30;;;;;;4950900;28;20501;-67
2021/08/05 11:16:50;;;;;;;5.88;2.00;;;27.60;93.70;;;;;;4951930;28;20073;-67
2021/08/05 11:20:18;;;;;;;9.73;2.15;;;26.70;94.00;;;;;;4951600;28;20604;-65
2021/08/05 11:23:25;;;;;;;7.90;2.15;;;26.30;94.80;;;;;;4948628;28;20497;-67
2021/08/05 11:26:30;;;;;;;6.90;2.20;;;26.70;94.70;;;;;;4955225;28;20042;-67
2021/08/05 11:29:34;;;;;;;9.27;2.40;;;26.80;94.50;;;;;;4958920;28;20046;-67
2021/08/05 11:32:39;;;;;;;10.77;2.28;;;26.30;94.40;;;;;;4948857;28;20051;-68
2021/08/05 11:36:11;;;;;;;7.53;2.05;;;28.40;93.10;;;;;;4949478;28;20131;-68
2021/08/05 11:39:22;;;;;;;9.52;1.80;;;28.90;92.10;;;;;;4953126;28;20050;-67
2021/08/05 11:42:29;;;;;;;4.35;1.63;;;30.50;91.60;;;;;;4947715;28;20058;-67
2021/08/05 11:45:35;;;;;;;9.90;1.85;;;32.00;90.20;;;;;;4949421;28;20046;-68
2021/08/05 11:48:40;;;;;;;7.90;1.70;;;31.30;88.70;;;;;;4947391;28;20042;-67
2021/08/05 11:51:45;;;;;;;9.57;1.90;;;29.70;89.30;;;;;;4951589;28;20812;-65
2021/08/05 11:55:17;;;;;;;6.72;1.88;;;30.00;87.80;;;;;;4948945;28;20042;-67
2021/08/05 11:58:21;;;;;;;9.52;1.60;;;29.00;90.70;;;;;;4950801;28;20050;-67
2021/08/05 12:01:27;;;;;;;6.60;1.60;;;28.90;91.00;;;;;;4953617;28;20505;-68
2021/08/05 12:04:31;;;;;;;7.00;2.08;;;30.20;89.30;;;;;;4955869;28;20054;-65
2021/08/05 12:07:51;;;;;;;11.57;2.58;;;29.90;88.60;;;;;;4952828;28;20493;-67
2021/08/05 12:10:56;;;;;;;9.75;2.13;;;28.40;91.40;;;;;;4953567;28;20062;-64
2021/08/05 12:14:04;;;;;;;11.30;2.58;;;26.80;92.80;;;;;;4954666;28;20054;-65
2021/08/05 12:17:09;;;;;;;11.57;2.22;;;27.30;92.80;;;;;;4952887;28;20064;-68
2021/08/05 12:20:19;;;;;;;8.07;1.80;;;28.90;92.20;;;;;;4954602;28;20046;-67
2021/08/05 12:23:35;;;;;;;8.43;2.20;;;30.40;90.70;;;;;;4953747;28;20046;-67
2021/08/05 12:26:40;;;;;;;8.90;2.40;;;31.10;88.70;;;;;;4952972;28;20042;-66
2021/08/05 12:30:07;;;;;;;12.55;2.42;;;29.50;90.20;;;;;;4954137;28;20587;-68
2021/08/05 12:33:24;;;;;;;8.68;2.00;;;28.60;91.40;;;;;;4953109;28;20039;-66
2021/08/05 12:36:28;;;;;;;9.57;2.47;;;27.90;92.20;;;;;;4953369;28;20050;-66
2021/08/05 12:39:33;;;;;;;9.30;2.00;;;27.80;92.10;;;;;;4953586;28;20054;-65
2021/08/05 12:42:38;;;;;;;12.73;2.60;;;28.40;91.70;;;;;;4955471;28;20401;-66
2021/08/05 12:45:47;;;;;;;10.80;2.58;;;28.70;91.70;;;;;;4958353;28;20046;-65
2021/08/05 12:48:55;;;;;;;7.50;1.85;;;29.10;91.20;;;;;;4956620;28;20054;-67
2021/08/05 12:52:00;;;;;;;7.57;2.17;;;31.00;90.20;;;;;;4951510;28;20042;-67
2021/08/05 12:55:08;;;;;;;6.35;2.22;;;29.10;91.90;;;;;;4954607;28;20050;-67
2021/08/05 12:58:22;;;;;;;11.68;2.10;;;30.10;91.00;;;;;;4966706;28;20061;-67
2021/08/05 13:01:26;;;;;;;7.97;2.03;;;29.90;90.20;;;;;;4959494;28;20042;-67
2021/08/05 13:04:32;;;;;;;9.00;2.50;;;30.00;90.70;;;;;;4953420;28;20046;-64
2021/08/05 13:07:41;;;;;;;13.93;2.88;;;28.60;91.00;;;;;;4954797;28;20645;-66
2021/08/05 13:10:46;;;;;;;11.13;3.20;;;27.20;92.70;;;;;;4954346;28;20059;-67
2021/08/05 13:13:56;;;;;;;26.67;3.50;;;28.40;91.60;;;;;;4953228;28;20501;-67
2021/08/05 13:17:08;;;;;;;11.98;2.13;;;29.40;91.80;;;;;;4951683;28;20389;-68
2021/08/05 13:20:19;;;;;;;10.43;2.63;;;29.90;90.40;;;;;;4955104;28;20039;-67
2021/08/05 13:23:27;;;;;;;13.45;3.03;;;27.50;92.30;;;;;;4951969;28;20046;-66
2021/08/05 13:26:35;;;;;;;11.25;2.95;;;28.60;92.60;;;;;;4950385;28;20528;-67
2021/08/05 13:29:48;;;;;;;12.70;2.47;;;29.10;91.70;;;;;;4951275;28;20046;-65
2021/08/05 13:32:53;;;;;;;13.68;2.88;;;29.50;90.10;;;;;;4952932;28;20341;-65
2021/08/05 13:36:00;;;;;;;10.10;2.38;;;28.00;92.30;;;;;;4951286;28;20556;-66
2021/08/05 13:39:07;;;;;;;11.63;2.88;;;28.60;91.30;;;;;;4954983;28;20046;-65
2021/08/05 13:42:12;;;;;;;9.55;2.40;;;28.50;91.10;;;;;;4955543;28;20396;-66
2021/08/05 13:45:17;;;;;;;16.45;2.67;;;27.20;91.90;;;;;;4952039;28;20132;-65
2021/08/05 13:48:23;;;;;;;12.10;2.65;;;27.10;92.90;;;;;;4955903;28;20057;-67
2021/08/05 13:51:27;;;;;;;10.63;3.45;;;27.50;93.10;;;;;;4950965;28;20042;-65
2021/08/05 13:54:31;;;;;;;11.35;2.28;;;28.00;92.50;;;;;;4949967;28;20054;-63
2021/08/05 13:57:37;;;;;;;9.80;2.42;;;27.40;92.10;;;;;;4955546;28;20485;-67
2021/08/05 14:00:41;;;;;;;10.07;2.13;;;27.20;92.80;;;;;;4951667;28;20081;-67
2021/08/05 14:03:45;;;;;;;14.85;3.10;;;28.40;91.40;;;;;;4958930;28;20054;-64
2021/08/05 14:06:49;;;;;;;10.65;2.88;;;27.60;91.50;;;;;;4953721;28;20069;-66
2021/08/05 14:09:54;;;;;;;11.68;2.92;;;27.00;91.90;;;;;;4953383;28;20042;-65
2021/08/05 14:13:00;;;;;;;8.57;1.90;;;27.90;91.20;;;;;;4951372;28;20046;-67
2021/08/05 14:16:04;;;;;;;11.35;2.40;;;28.20;91.10;;;;;;4958151;28;20054;-66
2021/08/05 14:19:08;;;;;;;8.35;2.72;;;28.10;90.90;;;;;;4951713;28;20063;-65
2021/08/05 14:22:13;;;;;;;13.15;2.20;;;27.70;91.80;;;;;;4950682;28;20067;-67
2021/08/05 14:25:19;;;;;;;8.82;2.33;;;28.30;91.70;;;;;;4961393;28;20509;-67
2021/08/05 14:28:23;;;;;;;9.18;2.10;;;29.60;91.10;;;;;;4958249;28;20041;-66
2021/08/05 14:31:27;;;;;;;10.80;2.05;;;29.10;90.40;;;;;;4968685;28;20070;-67
2021/08/05 14:34:31;;;;;;;11.50;1.85;;;29.00;90.90;;;;;;4952513;28;20038;-66
2021/08/05 14:37:36;;;;;;;9.93;2.30;;;28.70;91.50;;;;;;4951679;28;20046;-66
2021/08/05 14:40:43;;;;;;;13.70;3.30;;;29.30;90.80;;;;;;4971347;28;20053;-66
2021/08/05 14:43:48;;;;;;;7.65;1.90;;;29.50;90.70;;;;;;4952058;28;20046;-67
2021/08/05 14:46:53;;;;;;;9.75;2.22;;;29.90;90.50;;;;;;4951860;28;20050;-67
2021/08/05 14:49:58;;;;;;;8.88;2.38;;;30.20;90.30;;;;;;4960833;28;20046;-67
2021/08/05 14:53:04;;;;;;;8.27;2.08;;;28.80;90.60;;;;;;4956746;28;20046;-64
2021/08/05 14:56:08;;;;;;;12.82;3.03;;;28.40;91.70;;;;;;4956139;28;20042;-67
2021/08/05 14:59:12;;;;;;;7.82;2.38;;;27.70;92.10;;;;;;4952109;28;20042;-67
2021/08/05 15:02:16;;;;;;;14.20;3.22;;;27.20;92.80;;;;;;4963368;28;20046;-65
2021/08/05 15:05:22;;;;;;;13.02;3.13;;;27.50;92.90;;;;;;4954919;28;20050;-67
2021/08/05 15:08:26;;;;;;;13.63;2.40;;;28.20;92.40;;;;;;4955657;28;20058;-65
2021/08/05 15:11:31;;;;;;;12.82;2.80;;;28.40;91.50;;;;;;4971717;28;20389;-64
2021/08/05 15:14:35;;;;;;;12.60;2.55;;;28.20;91.70;;;;;;4969995;28;20393;-67
2021/08/05 15:17:39;;;;;;;10.93;2.70;;;28.10;92.90;;;;;;4962892;28;20066;-67
2021/08/05 15:20:44;;;;;;;10.07;2.47;;;28.40;92.30;;;;;;4952171;29;20058;-66
2021/08/05 15:23:50;;;;;;;16.67;2.70;;;26.30;93.60;;;;;;4968262;28;20054;-67
2021/08/05 15:26:54;;;;;;;14.73;2.38;;;25.70;95.10;;;;;;4960586;28;20046;-66
2021/08/05 15:29:59;;;;;;;12.05;2.40;;;26.30;94.90;;;;;;4951392;29;20034;-66
2021/08/05 15:33:04;;;;;;;12.48;2.78;;;25.60;95.40;;;;;;4951724;28;20125;-64
2021/08/05 15:36:16;;;;;;;12.02;2.83;;;25.50;95.20;;;;;;4951512;28;20050;-67
2021/08/05 15:39:20;;;;;;;14.88;2.33;;;25.60;95.60;;;;;;4951049;28;20046;-67
2021/08/05 15:42:24;;;;;;;11.95;2.50;;;26.00;95.30;;;;;;4960561;28;20402;-66
2021/08/05 15:45:29;;;;;;;11.70;2.47;;;26.40;94.80;;;;;;4969914;28;20410;-65
2021/08/05 15:48:33;;;;;;;14.23;2.08;;;26.40;94.20;;;;;;4966023;28;20397;-67
2021/08/05 15:51:37;;;;;;;10.40;2.42;;;27.20;92.90;;;;;;4932216;29;20035;-65
2021/08/05 15:54:41;;;;;;;8.88;2.10;;;26.80;92.80;;;;;;4965199;28;20045;-66
2021/08/05 15:57:46;;;;;;;8.98;2.15;;;26.70;92.50;;;;;;4960679;28;20528;-66
2021/08/05 16:00:50;;;;;;;10.20;2.63;;;26.70;93.00;;;;;;4970337;28;20054;-66
2021/08/05 16:03:53;;;;;;;7.45;2.00;;;26.90;92.10;;;;;;4965924;28;20038;-67
2021/08/05 16:06:58;;;;;;;8.38;1.83;;;26.00;92.20;;;;;;4962271;28;20513;-66